Lapine, Alabama
Current Conditions -  °F | °C
As of 5:53 PM on Sunday 23 Nov 2014 (Local Time) from KTOI Reporting Station
Overcast Overcast  
Wind Chill: 63°   Ceiling: 2000
Heat Index: 63°   Visibility: 10mi
Dew Point: 59°   Wind: 8mph
Humidity: 87%   Direction: 200°SSW
Pressure: 29.74"   Gusts: NA
Location:  31.97°N, 86.28°W
Report Text: KTOI 232353Z AUTO 20007KT 10SM OVC020 17/15 A2974 RMK AO2 SLP066 60034 T01720150 10217 20172 53020
Loading
Personal Weather Stations






























Interactive Weather Map New forecast layout! Learn more

10-Day Weather Forecast

Advertisements
Track Severe Weather on mobile